Time;durP1;ratioP1;P1;durP2;ratioP2;P2;SDS_P1;SDS_P2;PMS_P1;PMS_P2;Temp;Humidity;BMP_temperature;BMP_pressure;BME280_temperature;BME280_humidity;BME280_pressure;Samples;Min_cycle;Max_cycle;Signal;HPM_P1;HPM_P2
2021/10/15 00:00:13;;;;;;;10.70;6.00;;;;;;;3.22;96.18;99095.28;5064298;28;20021;-84
2021/10/15 00:02:38;;;;;;;10.55;6.72;;;;;;;3.21;96.11;99088.34;5063999;28;20064;-84
2021/10/15 00:05:05;;;;;;;13.88;6.90;;;;;;;2.98;96.56;99081.88;5065203;28;20216;-84
2021/10/15 00:07:31;;;;;;;10.07;5.65;;;;;;;2.95;96.10;99089.63;5064187;28;20024;-84
2021/10/15 00:09:56;;;;;;;9.93;5.82;;;;;;;2.89;96.31;99084.31;5064147;28;20097;-84
2021/10/15 00:12:21;;;;;;;8.32;5.50;;;;;;;2.88;96.01;99077.34;5064897;28;20078;-84
2021/10/15 00:14:47;;;;;;;8.35;5.53;;;;;;;2.98;96.84;99084.50;5064028;28;20028;-84
2021/10/15 00:17:12;;;;;;;12.30;5.35;;;;;;;2.92;96.87;99076.59;5064902;28;20339;-84
2021/10/15 00:19:38;;;;;;;7.90;5.40;;;;;;;2.90;97.03;99080.88;5063959;28;20280;-84
2021/10/15 00:22:03;;;;;;;9.95;5.88;;;;;;;3.01;96.79;99073.25;5065019;28;20316;-84
2021/10/15 00:24:28;;;;;;;9.65;5.28;;;;;;;2.92;96.52;99068.78;5064954;28;20084;-84
2021/10/15 00:26:54;;;;;;;11.95;6.97;;;;;;;2.85;96.18;99066.03;5063760;28;20025;-84
2021/10/15 00:29:19;;;;;;;10.55;5.65;;;;;;;2.86;95.82;99072.97;5063732;28;20025;-84
2021/10/15 00:31:45;;;;;;;7.85;5.00;;;;;;;2.94;95.90;99074.00;5063458;28;20025;-84
2021/10/15 00:34:10;;;;;;;8.38;5.00;;;;;;;2.97;95.67;99072.31;5063646;28;20096;-84
2021/10/15 00:36:36;;;;;;;9.20;5.70;;;;;;;2.93;95.78;99073.13;5064808;28;20027;-84
2021/10/15 00:39:01;;;;;;;9.82;5.50;;;;;;;2.85;95.97;99066.91;5063384;28;20025;-84
2021/10/15 00:41:27;;;;;;;9.65;6.13;;;;;;;2.70;96.12;99066.66;5063526;28;20024;-84
2021/10/15 00:44:10;;;;;;;11.07;5.93;;;;;;;2.72;96.29;99067.53;5063529;28;20040;-84
2021/10/15 00:46:38;;;;;;;9.18;5.82;;;;;;;2.81;96.43;99070.28;5063206;28;20032;-84
2021/10/15 00:49:05;;;;;;;9.10;5.45;;;;;;;2.80;96.16;99063.34;5063349;28;20062;-84
2021/10/15 00:51:31;;;;;;;9.07;5.60;;;;;;;2.69;95.89;99062.28;5064291;28;20321;-84
2021/10/15 00:53:58;;;;;;;12.10;4.97;;;;;;;2.74;96.11;99058.03;5063322;28;20072;-84
2021/10/15 00:56:24;;;;;;;11.90;5.18;;;;;;;2.62;96.09;99063.00;5064391;28;20029;-84
2021/10/15 00:58:49;;;;;;;8.90;5.53;;;;;;;2.60;96.30;99054.34;5063231;28;20020;-84
2021/10/15 01:01:15;;;;;;;8.38;5.03;;;;;;;2.55;96.40;99060.28;5064336;28;20027;-84
2021/10/15 01:03:40;;;;;;;7.95;5.05;;;;;;;2.60;96.13;99058.66;5063824;28;20052;-84
2021/10/15 01:06:06;;;;;;;9.63;6.30;;;;;;;2.61;96.39;99050.88;5063108;28;20025;-84
2021/10/15 01:08:38;;;;;;;7.30;4.72;;;;;;;2.56;96.10;99047.31;5064177;28;20021;-84
2021/10/15 01:11:04;;;;;;;7.82;4.75;;;;;;;2.61;96.59;99045.69;5062807;28;20025;-84
2021/10/15 01:13:30;;;;;;;7.80;5.07;;;;;;;2.58;96.39;99042.13;5063008;28;20197;-84
2021/10/15 01:16:06;;;;;;;8.23;5.22;;;;;;;2.47;96.02;99038.47;5064110;28;20025;-84
2021/10/15 01:18:32;;;;;;;9.00;5.57;;;;;;;2.47;95.83;99031.56;5063842;28;20020;-84
2021/10/15 01:20:57;;;;;;;9.45;4.82;;;;;;;2.46;95.56;99035.00;5062734;28;20116;-84
2021/10/15 01:23:23;;;;;;;7.32;5.18;;;;;;;2.44;95.96;99031.53;5062168;28;20316;-84
2021/10/15 01:25:52;;;;;;;7.53;5.15;;;;;;;2.42;96.47;99028.00;5062691;28;20190;-84
2021/10/15 01:28:17;;;;;;;7.15;4.75;;;;;;;2.39;96.25;99022.75;5063947;28;20021;-84
2021/10/15 01:30:43;;;;;;;5.85;4.13;;;;;;;2.31;95.95;99019.13;5062508;28;20013;-84
2021/10/15 01:33:09;;;;;;;6.63;4.47;;;;;;;2.25;95.43;99009.50;5062716;28;20194;-84
2021/10/15 01:35:34;;;;;;;7.72;4.35;;;;;;;2.19;95.88;99009.38;5062694;28;20021;-84
2021/10/15 01:37:59;;;;;;;6.38;4.50;;;;;;;2.13;96.16;99003.19;5062470;28;20028;-84
2021/10/15 01:40:25;;;;;;;7.70;5.25;;;;;;;2.10;96.16;98995.34;5062652;28;20017;-84
2021/10/15 01:42:54;;;;;;;7.50;4.97;;;;;;;2.18;96.36;99001.56;5062660;28;20013;-84
2021/10/15 01:45:24;;;;;;;9.18;5.32;;;;;;;2.25;96.25;98993.91;5062464;28;20318;-84
2021/10/15 01:47:50;;;;;;;7.72;5.25;;;;;;;2.29;96.04;98992.25;5062634;28;20025;-84
2021/10/15 01:50:15;;;;;;;7.60;4.88;;;;;;;2.21;96.11;98986.03;5062496;28;20342;-84
2021/10/15 01:52:41;;;;;;;7.13;4.82;;;;;;;2.23;96.40;98989.53;5063657;28;20021;-84
2021/10/15 01:55:08;;;;;;;8.50;5.10;;;;;;;2.28;95.95;98990.53;5063692;28;20128;-84
2021/10/15 01:57:34;;;;;;;8.65;5.32;;;;;;;2.29;96.07;98989.66;5062309;28;20055;-84
2021/10/15 02:00:00;;;;;;;10.23;5.22;;;;;;;2.40;95.88;98982.06;5063654;28;20029;-84
2021/10/15 02:02:25;;;;;;;7.40;4.63;;;;;;;2.22;95.04;98977.41;5063416;28;20332;-84
2021/10/15 02:04:52;;;;;;;6.57;4.25;;;;;;;2.12;95.84;98976.34;5062468;28;20040;-84
2021/10/15 02:07:18;;;;;;;8.75;4.72;;;;;;;2.05;96.27;98968.41;5063549;28;20021;-84
2021/10/15 02:09:43;;;;;;;8.30;5.32;;;;;;;1.91;96.97;98973.38;5063396;28;20032;-84
2021/10/15 02:12:09;;;;;;;7.70;5.22;;;;;;;2.05;97.34;98978.81;5062483;28;20032;-84
2021/10/15 02:14:34;;;;;;;7.55;5.05;;;;;;;2.06;96.79;98976.22;5062361;28;20283;-84
2021/10/15 02:17:00;;;;;;;9.45;5.40;;;;;;;2.09;96.68;98975.44;5062324;28;20228;-84
2021/10/15 02:19:26;;;;;;;6.95;4.88;;;;;;;2.11;96.37;98968.53;5062190;28;20024;-84
2021/10/15 02:21:51;;;;;;;6.63;3.92;;;;;;;1.99;95.81;98965.69;5062289;28;20017;-84
2021/10/15 02:24:17;;;;;;;7.30;4.38;;;;;;;1.97;96.10;98970.00;5062267;28;20021;-84
2021/10/15 02:26:42;;;;;;;6.65;4.75;;;;;;;1.92;96.22;98961.25;5062259;28;20028;-84
2021/10/15 02:29:07;;;;;;;8.98;4.43;;;;;;;1.90;96.29;98957.75;5062202;28;20021;-84
2021/10/15 02:31:33;;;;;;;7.88;4.65;;;;;;;1.94;96.84;98955.25;5062143;28;20029;-84
2021/10/15 02:33:58;;;;;;;9.55;5.70;;;;;;;2.01;96.98;98953.63;5063307;28;20036;-84
2021/10/15 02:36:24;;;;;;;7.47;4.78;;;;;;;1.97;96.39;98944.91;5065325;28;20024;-84
2021/10/15 02:38:49;;;;;;;11.27;4.85;;;;;;;1.97;96.38;98951.84;5065792;28;20032;-84
2021/10/15 02:41:15;;;;;;;7.28;4.70;;;;;;;1.98;96.64;98945.78;5066818;28;20020;-84
2021/10/15 02:43:40;;;;;;;10.43;5.35;;;;;;;2.00;96.46;98944.09;5066942;28;20024;-84
2021/10/15 02:46:06;;;;;;;8.50;5.28;;;;;;;2.07;96.24;98940.78;5065508;28;20084;-84
2021/10/15 02:48:31;;;;;;;6.10;3.92;;;;;;;2.04;95.67;98948.50;5065911;28;20052;-84
2021/10/15 02:50:57;;;;;;;7.18;4.60;;;;;;;1.96;95.38;98948.34;5065562;28;20025;-84
2021/10/15 02:53:22;;;;;;;6.55;4.25;;;;;;;1.89;95.46;98950.78;5066721;28;20032;-84
2021/10/15 02:55:48;;;;;;;6.53;4.32;;;;;;;1.94;95.65;98942.28;5066680;28;20025;-84
2021/10/15 02:58:13;;;;;;;7.72;4.50;;;;;;;1.82;95.53;98943.75;5066663;28;20083;-84
2021/10/15 03:00:38;;;;;;;7.63;4.85;;;;;;;1.89;96.14;98943.00;5066595;28;20084;-84
2021/10/15 03:03:04;;;;;;;6.38;4.25;;;;;;;1.82;95.54;98938.56;5064904;28;20159;-84
2021/10/15 03:05:29;;;;;;;6.43;4.25;;;;;;;1.81;95.23;98936.81;5066535;28;20268;-84
2021/10/15 03:07:55;;;;;;;8.40;4.60;;;;;;;1.77;95.21;98935.00;5065389;28;20063;-84
2021/10/15 03:10:20;;;;;;;6.32;4.50;;;;;;;1.69;95.52;98933.97;5066411;28;20052;-84
2021/10/15 03:12:45;;;;;;;7.57;4.28;;;;;;;1.64;95.60;98933.00;5064656;28;20032;-84
2021/10/15 03:15:11;;;;;;;7.35;4.55;;;;;;;1.64;95.97;98927.81;5064917;28;20025;-84
2021/10/15 03:17:36;;;;;;;7.97;5.15;;;;;;;1.67;96.06;98935.66;5064643;28;20025;-84
2021/10/15 03:20:03;;;;;;;10.10;4.40;;;;;;;1.75;96.23;98939.28;5064631;28;20431;-84
2021/10/15 03:22:30;;;;;;;10.82;5.53;;;;;;;1.75;96.45;98934.09;5065918;28;20024;-84
2021/10/15 03:24:56;;;;;;;9.23;5.75;;;;;;;1.72;96.28;98936.63;5064611;28;20021;-84
2021/10/15 03:27:21;;;;;;;9.30;5.95;;;;;;;1.69;95.71;98937.44;5065821;28;20312;-84
2021/10/15 03:29:46;;;;;;;10.13;6.00;;;;;;;1.62;95.99;98934.69;5064615;28;20023;-84
2021/10/15 03:32:12;;;;;;;11.48;6.80;;;;;;;1.58;95.89;98938.06;5064349;28;20098;-84
2021/10/15 03:34:37;;;;;;;10.95;6.57;;;;;;;1.54;95.92;98936.25;5064456;28;20055;-84
2021/10/15 03:37:03;;;;;;;11.00;5.63;;;;;;;1.54;96.03;98938.84;5064494;28;20021;-84
2021/10/15 03:39:28;;;;;;;8.50;5.20;;;;;;;1.59;95.44;98945.00;5064358;28;20028;-84
2021/10/15 03:41:54;;;;;;;11.50;6.18;;;;;;;1.55;95.62;98932.81;5064389;28;20020;-84
2021/10/15 03:44:19;;;;;;;16.95;6.38;;;;;;;1.54;95.70;98931.06;5064346;28;20052;-84
2021/10/15 03:46:44;;;;;;;8.93;5.32;;;;;;;1.60;95.64;98931.19;5064610;28;20052;-84
2021/10/15 03:49:10;;;;;;;7.30;4.82;;;;;;;1.55;95.86;98932.81;5065434;28;20025;-84
2021/10/15 03:51:35;;;;;;;9.40;5.22;;;;;;;1.40;95.55;98927.31;5065167;28;20084;-84
2021/10/15 03:54:01;;;;;;;6.97;4.07;;;;;;;1.46;95.86;98924.84;5065327;28;20021;-84
2021/10/15 03:56:26;;;;;;;8.07;5.00;;;;;;;1.49;95.60;98932.69;5064173;28;20020;-85
2021/10/15 03:58:52;;;;;;;9.18;5.20;;;;;;;1.55;95.10;98931.09;5064390;28;20242;-84
2021/10/15 04:01:17;;;;;;;9.77;5.05;;;;;;;1.63;95.20;98931.25;5063636;28;20021;-84
2021/10/15 04:03:43;;;;;;;13.48;4.53;;;;;;;1.48;95.32;98929.22;5063762;28;20407;-84
2021/10/15 04:06:08;;;;;;;6.90;4.57;;;;;;;1.47;95.85;98939.56;5064011;28;20100;-84
2021/10/15 04:08:35;;;;;;;8.05;4.90;;;;;;;1.61;96.22;98938.13;5064245;28;20123;-87
2021/10/15 04:11:00;;;;;;;9.55;4.78;;;;;;;1.57;95.11;98937.19;5062736;28;20024;-84
2021/10/15 04:13:26;;;;;;;6.53;4.10;;;;;;;1.58;95.32;98938.06;5063064;28;20021;-84
2021/10/15 04:15:51;;;;;;;6.70;4.60;;;;;;;1.42;94.81;98935.97;5063308;28;20316;-84
2021/10/15 04:18:17;;;;;;;7.70;4.70;;;;;;;1.38;95.59;98928.97;5063048;28;20093;-84
2021/10/15 04:20:42;;;;;;;8.10;4.55;;;;;;;1.41;96.04;98926.47;5062906;28;20021;-85
2021/10/15 04:23:07;;;;;;;11.13;4.72;;;;;;;1.31;96.07;98921.94;5064239;28;20024;-84
2021/10/15 04:25:33;;;;;;;7.68;4.85;;;;;;;1.34;96.51;98924.59;5064411;28;20052;-84
2021/10/15 04:27:58;;;;;;;8.07;5.38;;;;;;;1.39;96.85;98921.25;5064578;28;20035;-84
2021/10/15 04:30:24;;;;;;;8.77;5.25;;;;;;;1.42;96.10;98915.22;5064499;28;20020;-84
2021/10/15 04:32:49;;;;;;;7.88;4.53;;;;;;;1.56;95.95;98917.28;5064521;28;20359;-84
2021/10/15 04:35:14;;;;;;;9.80;4.82;;;;;;;1.55;96.53;98918.13;5064509;28;20025;-84
2021/10/15 04:37:40;;;;;;;8.77;5.22;;;;;;;1.70;96.17;98912.34;5064307;28;20021;-85
2021/10/15 04:40:06;;;;;;;8.70;5.00;;;;;;;1.81;95.69;98916.06;5063003;28;20017;-84
2021/10/15 04:42:32;;;;;;;7.45;4.70;;;;;;;1.81;95.44;98908.28;5063270;28;20023;-84
2021/10/15 04:44:57;;;;;;;9.25;4.93;;;;;;;1.85;95.42;98907.47;5063487;28;20044;-84
2021/10/15 04:47:23;;;;;;;8.68;5.38;;;;;;;1.84;95.64;98911.78;5064567;28;20027;-84
2021/10/15 04:49:49;;;;;;;8.93;4.90;;;;;;;2.01;95.39;98909.50;5063396;28;20099;-84
2021/10/15 04:52:14;;;;;;;8.57;4.03;;;;;;;2.16;94.91;98909.78;5063265;28;20074;-84
2021/10/15 04:54:39;;;;;;;9.65;5.15;;;;;;;2.22;94.49;98905.56;5063317;28;20051;-84
2021/10/15 04:57:05;;;;;;;7.70;4.50;;;;;;;2.22;94.39;98907.31;5064416;28;20044;-84
2021/10/15 04:59:30;;;;;;;7.55;4.57;;;;;;;2.31;94.37;98906.59;5062317;28;20021;-84
2021/10/15 05:01:56;;;;;;;8.32;4.32;;;;;;;2.32;95.17;98911.81;5062950;28;20075;-84
2021/10/15 05:04:21;;;;;;;14.90;5.00;;;;;;;2.46;95.07;98899.06;5063217;28;20028;-84
2021/10/15 05:06:46;;;;;;;18.40;4.95;;;;;;;2.43;94.78;98899.88;5063114;28;20020;-84
2021/10/15 05:11:43;;;;;;;13.60;5.15;;;;;;;2.36;95.97;98903.22;5064390;28;20071;-84
2021/10/15 05:14:08;;;;;;;14.57;5.18;;;;;;;2.30;95.90;98897.91;5063026;28;20035;-84
2021/10/15 05:16:34;;;;;;;11.65;5.00;;;;;;;2.39;95.65;98892.88;5062980;28;20024;-84
2021/10/15 05:18:59;;;;;;;12.10;5.60;;;;;;;2.50;95.46;98899.09;5064057;28;20035;-84
2021/10/15 05:21:25;;;;;;;10.88;5.30;;;;;;;2.51;95.65;98893.09;5062869;28;20088;-84
2021/10/15 05:23:50;;;;;;;15.35;5.80;;;;;;;2.42;96.72;98898.13;5064030;28;20127;-84
2021/10/15 05:26:16;;;;;;;18.13;6.22;;;;;;;2.43;96.99;98888.63;5062854;28;20196;-84
2021/10/15 05:28:41;;;;;;;15.68;6.20;;;;;;;2.47;97.53;98891.28;5062818;28;20021;-84
2021/10/15 05:31:06;;;;;;;12.05;5.65;;;;;;;2.53;97.45;98891.38;5063860;28;20029;-84
2021/10/15 05:33:32;;;;;;;20.95;5.90;;;;;;;2.69;97.26;98882.13;5062782;28;20028;-84
2021/10/15 05:35:57;;;;;;;25.50;7.55;;;;;;;2.62;97.82;98875.94;5063924;28;20092;-84
2021/10/15 05:38:23;;;;;;;29.55;7.30;;;;;;;2.68;97.96;98875.16;5062739;28;20025;-84
2021/10/15 05:40:48;;;;;;;26.00;6.60;;;;;;;2.77;98.56;98876.19;5062637;28;20025;-84
2021/10/15 05:43:13;;;;;;;15.73;6.60;;;;;;;2.80;97.99;98886.63;5062668;28;20021;-84
2021/10/15 05:45:39;;;;;;;26.92;7.13;;;;;;;2.92;98.00;98883.31;5062663;28;20025;-84
2021/10/15 05:48:05;;;;;;;15.80;6.82;;;;;;;3.00;97.67;98874.78;5062583;28;20075;-84
2021/10/15 05:50:31;;;;;;;18.10;6.53;;;;;;;2.85;97.29;98874.53;5063735;28;20313;-84
2021/10/15 05:53:05;;;;;;;17.05;6.63;;;;;;;2.91;97.50;98874.63;5063623;28;20028;-84
2021/10/15 06:00:58;;;;;;;12.63;6.00;;;;;;;2.79;96.88;98866.69;5063673;28;20063;-84
2021/10/15 06:03:25;;;;;;;34.78;6.00;;;;;;;2.71;96.44;98870.88;5063377;28;20068;-84
2021/10/15 06:16:49;;;;;;;12.05;5.70;;;;;;;2.62;97.06;98875.94;5067521;28;20074;-84
2021/10/15 06:19:17;;;;;;;14.23;6.95;;;;;;;2.58;96.85;98876.75;5066257;28;20224;-84
2021/10/15 06:21:43;;;;;;;17.83;6.15;;;;;;;2.61;96.63;98882.00;5067335;28;20055;-84
2021/10/15 06:24:09;;;;;;;13.60;6.68;;;;;;;2.57;96.95;98877.59;5066159;28;20021;-84
2021/10/15 06:26:34;;;;;;;14.18;6.63;;;;;;;2.43;96.54;98873.88;5067256;28;20028;-84
2021/10/15 06:28:59;;;;;;;13.75;6.75;;;;;;;2.45;96.85;98880.00;5066083;28;20024;-84
2021/10/15 06:31:25;;;;;;;18.27;6.32;;;;;;;2.45;97.42;98887.78;5065942;28;20201;-84
2021/10/15 06:33:50;;;;;;;25.33;7.50;;;;;;;2.57;97.86;98888.00;5067112;28;20070;-84
2021/10/15 06:36:16;;;;;;;20.40;7.82;;;;;;;2.75;97.59;98882.22;5067083;28;20088;-84
2021/10/15 06:38:41;;;;;;;14.00;7.10;;;;;;;2.83;97.50;98889.25;5065854;28;20078;-84
2021/10/15 06:41:07;;;;;;;12.77;6.65;;;;;;;2.84;96.55;98892.72;5066965;28;20033;-84
2021/10/15 06:43:32;;;;;;;11.90;6.18;;;;;;;2.94;96.54;98889.44;5065817;28;20364;-84
2021/10/15 06:45:58;;;;;;;15.40;7.30;;;;;;;3.08;95.77;98893.97;5065764;28;20107;-84
2021/10/15 06:48:23;;;;;;;12.85;6.78;;;;;;;3.23;95.54;98899.34;5065708;28;20021;-84
2021/10/15 06:50:49;;;;;;;12.15;5.97;;;;;;;3.48;95.32;98906.63;5066748;28;20316;-84
2021/10/15 06:53:14;;;;;;;13.98;7.72;;;;;;;3.71;94.59;98915.63;5065634;28;20032;-84
2021/10/15 06:55:39;;;;;;;15.75;7.55;;;;;;;3.73;94.04;98911.28;5066688;28;20225;-84
2021/10/15 06:58:06;;;;;;;14.90;7.25;;;;;;;3.93;94.24;98917.59;5066641;28;20321;-84
2021/10/15 07:00:31;;;;;;;9.75;6.20;;;;;;;4.13;93.40;98921.31;5066603;28;20025;-84
2021/10/15 07:02:57;;;;;;;13.07;6.22;;;;;;;4.53;92.02;98921.69;5065235;28;20102;-84
2021/10/15 07:05:24;;;;;;;17.50;7.80;;;;;;;4.81;91.01;98923.66;5065387;28;20020;-84
2021/10/15 07:07:50;;;;;;;12.98;6.50;;;;;;;5.13;90.77;98919.53;5065313;28;20236;-84
2021/10/15 07:10:16;;;;;;;13.68;6.85;;;;;;;5.16;90.87;98935.22;5066469;28;20021;-84
2021/10/15 07:12:43;;;;;;;14.27;6.97;;;;;;;5.54;90.90;98931.97;5065226;28;20036;-84
2021/10/15 07:15:12;;;;;;;11.52;6.40;;;;;;;5.93;88.61;98920.84;5065200;28;20052;-84
2021/10/15 07:17:37;;;;;;;12.68;7.28;;;;;;;5.69;89.41;98916.38;5065195;28;20115;-84
2021/10/15 07:20:04;;;;;;;19.13;8.77;;;;;;;5.80;89.79;98926.88;5065162;28;20316;-84
2021/10/15 07:22:30;;;;;;;14.98;8.57;;;;;;;6.19;90.15;98930.53;5063974;28;20017;-84
2021/10/15 07:24:55;;;;;;;16.77;7.88;;;;;;;6.97;88.01;98931.47;5066175;28;20059;-84
2021/10/15 07:27:21;;;;;;;18.73;8.07;;;;;;;7.72;86.29;98923.47;5064995;28;20324;-84
2021/10/15 07:29:46;;;;;;;20.08;9.30;;;;;;;8.05;88.25;98924.19;5064948;28;20045;-84
2021/10/15 07:32:12;;;;;;;13.48;8.15;;;;;;;8.45;86.61;98936.22;5064822;28;20027;-84
2021/10/15 07:34:38;;;;;;;14.82;8.90;;;;;;;8.90;84.20;98939.41;5064911;28;20253;-85
2021/10/15 07:37:04;;;;;;;19.80;10.05;;;;;;;9.03;82.54;98977.81;5065976;28;20025;-85
2021/10/15 07:39:29;;;;;;;18.60;9.20;;;;;;;9.69;84.45;98798.50;5064744;28;20032;-85
2021/10/15 07:41:55;;;;;;;26.95;11.30;;;;;;;9.82;85.26;98957.78;5064715;28;20021;-85
2021/10/15 07:44:20;;;;;;;19.95;10.10;;;;;;;10.24;83.66;98968.69;5064676;28;20320;-85
2021/10/15 07:46:46;;;;;;;20.48;9.95;;;;;;;10.34;83.58;98959.78;5064641;28;20029;-85
2021/10/15 07:49:11;;;;;;;24.70;11.07;;;;;;;11.13;80.52;98954.22;5064563;28;20062;-85
2021/10/15 07:51:37;;;;;;;18.48;10.68;;;;;;;11.26;80.29;98976.81;5065635;28;20028;-85
2021/10/15 07:54:03;;;;;;;19.88;11.07;;;;;;;11.89;79.35;98973.06;5064528;28;20321;-85
2021/10/15 07:56:32;;;;;;;20.38;11.20;;;;;;;12.04;78.23;98946.41;5064440;28;20036;-85
2021/10/15 07:58:58;;;;;;;20.15;10.55;;;;;;;12.50;76.70;98944.50;5064390;28;20028;-85
2021/10/15 08:01:24;;;;;;;18.15;10.10;;;;;;;13.26;73.18;98933.06;5065403;28;20082;-85
2021/10/15 08:03:49;;;;;;;19.73;10.73;;;;;;;13.65;71.78;98928.47;5064087;28;20036;-85
2021/10/15 08:06:14;;;;;;;19.42;10.13;;;;;;;14.30;69.97;98927.56;5064228;28;20021;-85
2021/10/15 08:08:40;;;;;;;16.98;10.30;;;;;;;14.71;68.58;98925.38;5065357;28;20055;-85
2021/10/15 08:11:05;;;;;;;15.95;9.40;;;;;;;15.35;67.12;98933.88;5064156;28;20336;-85
2021/10/15 08:13:31;;;;;;;18.58;9.73;;;;;;;15.55;65.34;99022.53;5064123;28;20059;-85
2021/10/15 08:15:57;;;;;;;18.92;9.95;;;;;;;15.55;64.38;98884.56;5064050;28;20048;-85
2021/10/15 08:18:23;;;;;;;15.68;8.70;;;;;;;16.12;62.91;98919.63;5065197;28;20021;-85
2021/10/15 08:20:54;;;;;;;21.13;9.80;;;;;;;15.76;63.03;98883.78;5065127;28;20216;-85
2021/10/15 08:23:20;;;;;;;14.38;8.55;;;;;;;16.19;62.38;98878.66;5065125;28;20332;-85
2021/10/15 08:25:46;;;;;;;14.85;7.82;;;;;;;16.37;61.63;98863.78;5064988;28;20024;-85
2021/10/15 08:28:12;;;;;;;12.52;7.85;;;;;;;16.77;60.30;98862.19;5065002;28;20252;-85
2021/10/15 08:30:37;;;;;;;15.75;8.20;;;;;;;16.98;59.42;98869.28;5063753;28;20032;-85
2021/10/15 08:33:03;;;;;;;16.35;8.30;;;;;;;17.07;59.58;98865.38;5064660;28;20367;-85
2021/10/15 08:35:28;;;;;;;15.35;7.57;;;;;;;16.61;61.29;98855.75;5063664;28;20021;-85
2021/10/15 08:37:54;;;;;;;16.17;8.05;;;;;;;17.06;59.78;98855.69;5063624;28;20048;-85
2021/10/15 08:40:19;;;;;;;15.65;7.97;;;;;;;17.24;58.87;98861.09;5063598;28;20020;-85
2021/10/15 08:42:53;;;;;;;13.95;7.35;;;;;;;17.52;58.54;98862.63;5063456;28;20028;-85
2021/10/15 08:45:31;;;;;;;16.70;8.00;;;;;;;18.26;57.87;98873.41;5064648;28;20028;-85
2021/10/15 08:47:57;;;;;;;18.30;7.95;;;;;;;17.21;58.56;98868.31;5063432;28;20128;-85
2021/10/15 08:50:23;;;;;;;13.43;7.10;;;;;;;17.22;59.95;98875.38;5063705;28;20043;-85
2021/10/15 08:52:50;;;;;;;16.23;8.20;;;;;;;17.87;58.23;98880.56;5063342;28;20025;-85
2021/10/15 08:55:16;;;;;;;15.10;7.40;;;;;;;17.40;59.38;98861.28;5063305;28;20025;-85
2021/10/15 08:57:56;;;;;;;14.00;7.57;;;;;;;16.44;65.07;98868.84;5063273;28;20031;-85
2021/10/15 09:00:27;;;;;;;13.50;7.82;;;;;;;15.85;65.25;98862.22;5063297;28;20016;-85
2021/10/15 09:03:11;;;;;;;17.13;8.02;;;;;;;15.32;66.09;98863.25;5062960;28;20044;-85
2021/10/15 09:05:38;;;;;;;17.27;7.72;;;;;;;14.86;67.68;98860.41;5063097;28;20025;-85
2021/10/15 09:08:04;;;;;;;11.68;7.57;;;;;;;14.54;68.20;98852.63;5064282;28;20050;-85
2021/10/15 09:10:31;;;;;;;17.75;8.77;;;;;;;14.24;70.34;98845.66;5063109;28;20025;-85
2021/10/15 09:12:57;;;;;;;21.35;8.25;;;;;;;13.86;70.94;98846.72;5063025;28;20060;-85
2021/10/15 09:15:36;;;;;;;16.00;9.15;;;;;;;13.89;71.54;98861.69;5062992;28;20024;-85
2021/10/15 09:18:15;;;;;;;18.67;8.38;;;;;;;13.41;74.17;98858.59;5064122;28;20033;-85
2021/10/15 09:20:42;;;;;;;15.10;8.48;;;;;;;13.39;72.93;98864.84;5064159;28;20017;-85
2021/10/15 09:23:10;;;;;;;18.50;9.30;;;;;;;13.44;72.77;98863.81;5063938;28;20343;-85
2021/10/15 09:25:38;;;;;;;13.95;9.05;;;;;;;13.36;72.66;98854.38;5062885;28;20385;-85
2021/10/15 09:28:14;;;;;;;16.13;8.93;;;;;;;13.34;74.00;98850.88;5062831;28;20025;-85
2021/10/15 09:30:42;;;;;;;18.75;8.52;;;;;;;13.47;72.80;98858.44;5063810;28;20025;-85
2021/10/15 09:33:08;;;;;;;19.17;8.80;;;;;;;13.37;73.00;98861.38;5063926;28;20016;-85
2021/10/15 09:35:34;;;;;;;16.25;9.30;;;;;;;13.27;74.72;98860.78;5062793;28;20244;-85
2021/10/15 09:38:05;;;;;;;21.80;10.32;;;;;;;13.34;74.40;98861.44;5062723;28;20017;-85
2021/10/15 09:40:37;;;;;;;15.73;9.20;;;;;;;13.16;75.65;98856.66;5063856;28;20088;-85
2021/10/15 09:43:06;;;;;;;17.38;9.20;;;;;;;13.11;74.79;98853.28;5062665;28;20025;-85
2021/10/15 09:45:52;;;;;;;13.88;9.07;;;;;;;13.22;74.68;98846.78;5066328;28;20378;-85
2021/10/15 09:48:35;;;;;;;20.33;9.00;;;;;;;13.13;74.37;98848.81;5069260;28;20025;-85
2021/10/15 09:51:19;;;;;;;22.30;10.93;;;;;;;13.02;75.08;98849.97;5069318;28;20062;-85
2021/10/15 09:54:11;;;;;;;20.02;9.18;;;;;;;13.05;75.36;98859.59;5069280;28;20324;-85
2021/10/15 09:56:53;;;;;;;24.42;10.55;;;;;;;13.02;76.13;98863.19;5069257;28;20017;-85
2021/10/15 09:59:18;;;;;;;16.23;9.30;;;;;;;12.93;75.15;98868.66;5069210;28;20021;-85
2021/10/15 10:01:44;;;;;;;20.30;10.05;;;;;;;13.07;75.35;98869.19;5069032;28;20339;-85
2021/10/15 10:04:11;;;;;;;16.40;9.77;;;;;;;13.51;75.18;98875.09;5069012;28;20051;-85
2021/10/15 10:06:37;;;;;;;20.13;9.85;;;;;;;13.86;74.31;98877.63;5069148;28;20335;-85
2021/10/15 10:09:04;;;;;;;17.50;9.27;;;;;;;14.12;71.92;98883.03;5070255;28;20088;-85
2021/10/15 10:11:30;;;;;;;26.33;10.55;;;;;;;14.45;71.43;98880.28;5070238;28;20024;-85
2021/10/15 10:13:56;;;;;;;19.77;9.90;;;;;;;14.71;71.57;98876.78;5069133;28;20040;-85
2021/10/15 10:16:24;;;;;;;19.20;10.18;;;;;;;14.55;70.65;98870.25;5070209;28;20025;-85
2021/10/15 10:18:55;;;;;;;19.42;10.30;;;;;;;14.75;71.01;98871.34;5069038;28;20312;-85
2021/10/15 10:21:25;;;;;;;17.13;9.60;;;;;;;14.79;70.91;98874.78;5070161;28;20028;-85
2021/10/15 10:23:54;;;;;;;17.23;10.05;;;;;;;14.68;71.84;98867.16;5070170;28;20249;-85
2021/10/15 10:26:22;;;;;;;24.95;11.90;;;;;;;14.88;71.83;98874.50;5068956;28;20032;-85
2021/10/15 10:29:13;;;;;;;19.75;10.65;;;;;;;15.05;70.54;98872.13;5070082;28;20220;-85
2021/10/15 10:31:39;;;;;;;19.98;10.70;;;;;;;14.78;70.46;98873.91;5067071;28;20139;-85
2021/10/15 10:34:07;;;;;;;18.40;10.35;;;;;;;14.64;70.25;98859.38;5068934;28;20024;-85
2021/10/15 10:36:35;;;;;;;20.42;10.30;;;;;;;14.84;70.87;98867.56;5068875;28;20308;-85
2021/10/15 10:39:24;;;;;;;22.70;11.05;;;;;;;14.64;71.85;98854.06;5068875;28;20220;-85
2021/10/15 10:42:08;;;;;;;28.35;11.82;;;;;;;14.39;73.77;98847.81;5065855;28;20056;-85
2021/10/15 10:44:37;;;;;;;20.63;11.27;;;;;;;14.51;72.03;98856.25;5068859;28;20017;-85
2021/10/15 10:47:09;;;;;;;18.40;10.65;;;;;;;14.33;71.41;98858.63;5068760;28;20335;-85
2021/10/15 10:49:35;;;;;;;22.30;10.57;;;;;;;14.22;73.40;98860.66;5069907;28;20047;-85
2021/10/15 10:52:09;;;;;;;24.27;11.38;;;;;;;14.55;70.74;98859.66;5068733;28;20013;-85
2021/10/15 10:54:35;;;;;;;21.13;10.15;;;;;;;14.93;68.88;98853.97;5069889;28;20027;-85
2021/10/15 10:57:13;;;;;;;26.80;10.45;;;;;;;14.84;70.16;98846.38;5066824;28;20021;-85
2021/10/15 10:59:38;;;;;;;18.58;11.05;;;;;;;15.11;68.63;98851.59;5066680;28;20071;-85
2021/10/15 11:02:09;;;;;;;21.60;10.43;;;;;;;15.20;69.20;98853.06;5066358;28;20032;-85
2021/10/15 11:04:35;;;;;;;21.50;9.80;;;;;;;15.07;69.61;98852.59;5065498;28;20369;-85
2021/10/15 11:07:29;;;;;;;15.43;10.10;;;;;;;15.22;68.17;98848.56;5065450;28;20029;-85
2021/10/15 11:10:01;;;;;;;24.63;10.57;;;;;;;15.25;69.15;98848.44;5065051;28;20035;-85
2021/10/15 11:12:26;;;;;;;19.10;10.50;;;;;;;15.38;68.06;98838.34;5065308;28;20279;-85
2021/10/15 11:14:58;;;;;;;20.10;9.80;;;;;;;15.23;67.95;98834.41;5065223;28;20025;-85
2021/10/15 11:17:31;;;;;;;19.33;8.43;;;;;;;15.37;68.82;98836.63;5065231;28;20043;-85
2021/10/15 11:20:12;;;;;;;22.63;10.20;;;;;;;15.30;67.80;98840.34;5065166;28;20024;-85
2021/10/15 11:22:40;;;;;;;19.33;9.23;;;;;;;15.29;67.14;98834.19;5065029;28;20028;-85
2021/10/15 11:25:07;;;;;;;20.38;9.98;;;;;;;15.41;67.82;98844.38;5058354;28;20029;-87
2021/10/15 11:27:33;;;;;;;16.38;8.95;;;;;;;15.30;70.64;98840.34;5045100;28;20313;-85
2021/10/15 11:30:00;;;;;;;19.17;11.23;;;;;;;15.33;70.53;98833.16;5045055;28;20025;-84
2021/10/15 11:32:31;;;;;;;20.40;10.75;;;;;;;15.18;69.77;98826.59;5065229;28;20044;-84
2021/10/15 11:35:10;;;;;;;21.63;11.40;;;;;;;15.26;69.16;98818.38;5049614;28;20029;-86
2021/10/15 11:38:03;;;;;;;20.95;10.80;;;;;;;15.38;69.56;98823.31;5045390;28;20198;-86
2021/10/15 11:40:37;;;;;;;27.45;11.00;;;;;;;15.35;70.33;98823.38;5050520;28;20020;-86
2021/10/15 11:43:12;;;;;;;21.90;11.18;;;;;;;15.12;71.03;98816.22;5053421;28;20049;-86
2021/10/15 11:45:41;;;;;;;26.52;9.65;;;;;;;15.09;70.24;98823.38;5043881;28;20188;-86
2021/10/15 11:48:09;;;;;;;26.27;10.88;;;;;;;14.95;72.89;98823.88;5044646;28;20048;-86
2021/10/15 11:50:51;;;;;;;20.45;10.80;;;;;;;15.00;70.38;98810.47;5064158;28;20212;-86